Time;durP1;ratioP1;P1;durP2;ratioP2;P2;SDS_P1;SDS_P2;PMS_P1;PMS_P2;Temp;Humidity;BMP_temperature;BMP_pressure;BME280_temperature;BME280_humidity;BME280_pressure;Samples;Min_cycle;Max_cycle;Signal;HPM_P1;HPM_P2
2022/12/12 00:02:15;;;;;;;;;;;18.70;37.50;;;;;;5063778;28;20261;-63
2022/12/12 00:04:43;;;;;;;;;;;18.70;37.50;;;;;;5093908;27;19929;-64
2022/12/12 00:07:10;;;;;;;;;;;18.70;37.40;;;;;;5068733;28;19920;-66
2022/12/12 00:09:37;;;;;;;;;;;18.70;37.50;;;;;;5069797;28;19928;-65
2022/12/12 00:12:04;;;;;;;;;;;18.70;37.50;;;;;;5068507;28;19924;-64
2022/12/12 00:14:30;;;;;;;;;;;18.70;37.50;;;;;;5071833;28;19943;-64
2022/12/12 00:16:57;;;;;;;;;;;18.70;37.50;;;;;;5095005;27;19920;-64
2022/12/12 00:19:24;;;;;;;;;;;18.70;37.40;;;;;;5096554;27;19927;-64
2022/12/12 00:21:53;;;;;;;;;;;18.70;37.40;;;;;;5098380;27;19947;-64
2022/12/12 00:24:19;;;;;;;;;;;18.70;37.40;;;;;;5073622;28;19921;-65
2022/12/12 00:26:46;;;;;;;;;;;18.70;37.40;;;;;;5071640;28;19948;-64
2022/12/12 00:29:13;;;;;;;;;;;18.70;37.40;;;;;;5090998;28;19939;-64
2022/12/12 00:31:40;;;;;;;;;;;18.70;37.40;;;;;;5069493;28;19930;-65
2022/12/12 00:34:07;;;;;;;;;;;18.70;37.40;;;;;;5069595;28;19928;-65
2022/12/12 00:36:33;;;;;;;;;;;18.70;37.40;;;;;;5071147;28;19924;-64
2022/12/12 00:39:01;;;;;;;;;;;18.70;37.40;;;;;;5067401;28;19982;-65
2022/12/12 00:41:28;;;;;;;;;;;18.70;37.40;;;;;;5068910;28;19925;-65
2022/12/12 00:43:55;;;;;;;;;;;18.70;37.40;;;;;;5075804;28;19933;-64
2022/12/12 00:46:22;;;;;;;;;;;18.70;37.40;;;;;;5071959;28;20041;-64
2022/12/12 00:48:49;;;;;;;;;;;18.70;37.40;;;;;;5070527;28;19925;-65
2022/12/12 00:51:16;;;;;;;;;;;18.70;37.40;;;;;;5068374;28;19921;-65
2022/12/12 00:53:43;;;;;;;;;;;18.70;37.40;;;;;;5072115;28;19924;-63
2022/12/12 00:56:11;;;;;;;;;;;18.70;37.40;;;;;;5073023;28;20404;-65
2022/12/12 00:58:38;;;;;;;;;;;18.70;37.40;;;;;;5071263;28;19920;-65
2022/12/12 01:01:08;;;;;;;;;;;18.70;37.40;;;;;;5099686;27;19921;-65
2022/12/12 01:03:34;;;;;;;;;;;18.60;37.30;;;;;;5071024;28;19978;-65
2022/12/12 01:06:01;;;;;;;;;;;18.70;37.30;;;;;;5100087;27;19935;-63
2022/12/12 01:08:28;;;;;;;;;;;18.70;37.30;;;;;;5065216;28;20440;-64
2022/12/12 01:10:55;;;;;;;;;;;18.60;37.20;;;;;;5096541;27;19994;-65
2022/12/12 01:13:23;;;;;;;;;;;18.70;37.30;;;;;;5070460;28;19932;-64
2022/12/12 01:15:50;;;;;;;;;;;18.70;37.30;;;;;;5072853;28;19924;-64
2022/12/12 01:18:17;;;;;;;;;;;18.60;37.20;;;;;;5070237;28;19932;-63
2022/12/12 01:20:43;;;;;;;;;;;18.60;37.20;;;;;;5070828;28;19985;-65
2022/12/12 01:23:10;;;;;;;;;;;18.60;37.20;;;;;;5095400;27;19982;-63
2022/12/12 01:25:37;;;;;;;;;;;18.60;37.20;;;;;;5067088;28;19925;-65
2022/12/12 01:28:04;;;;;;;;;;;18.60;37.20;;;;;;5067840;28;19924;-64
2022/12/12 01:30:32;;;;;;;;;;;18.60;37.20;;;;;;5068570;28;19932;-64
2022/12/12 01:32:59;;;;;;;;;;;18.60;37.10;;;;;;5067624;28;19924;-64
2022/12/12 01:35:26;;;;;;;;;;;18.60;37.10;;;;;;5066487;28;19924;-64
2022/12/12 01:37:53;;;;;;;;;;;18.60;37.10;;;;;;5071233;28;19959;-65
2022/12/12 01:40:20;;;;;;;;;;;18.60;37.10;;;;;;5069834;28;19924;-64
2022/12/12 01:42:46;;;;;;;;;;;18.60;37.10;;;;;;5071584;28;19924;-64
2022/12/12 01:45:32;;;;;;;;;;;18.60;37.10;;;;;;5070886;28;19929;-65
2022/12/12 01:48:00;;;;;;;;;;;18.60;37.10;;;;;;5072356;28;20001;-65
2022/12/12 01:50:27;;;;;;;;;;;18.60;37.10;;;;;;5068503;28;19920;-63
2022/12/12 01:52:54;;;;;;;;;;;18.60;37.10;;;;;;5071261;28;20146;-64
2022/12/12 01:55:21;;;;;;;;;;;18.60;37.10;;;;;;5069952;28;19973;-64
2022/12/12 01:57:49;;;;;;;;;;;18.60;37.10;;;;;;5066773;28;19920;-64
2022/12/12 02:00:16;;;;;;;;;;;18.60;37.10;;;;;;5069833;28;19927;-65
2022/12/12 02:02:44;;;;;;;;;;;18.60;37.00;;;;;;5066269;28;19924;-66
2022/12/12 02:05:15;;;;;;;;;;;18.60;37.00;;;;;;5063942;28;19931;-64
2022/12/12 02:07:42;;;;;;;;;;;18.60;37.00;;;;;;5042369;28;20027;-64
2022/12/12 02:10:09;;;;;;;;;;;18.60;37.00;;;;;;5092149;28;20015;-66
2022/12/12 02:12:36;;;;;;;;;;;18.60;37.00;;;;;;5067267;28;19999;-64
2022/12/12 02:15:02;;;;;;;;;;;18.60;37.00;;;;;;5060292;28;19974;-65
2022/12/12 02:17:35;;;;;;;;;;;18.60;37.00;;;;;;5065375;28;19966;-64
2022/12/12 02:20:16;;;;;;;;;;;18.60;37.00;;;;;;5065773;28;19928;-64
2022/12/12 02:22:57;;;;;;;;;;;18.60;37.00;;;;;;5086109;28;19983;-64
2022/12/12 02:25:29;;;;;;;;;;;18.60;36.90;;;;;;5067430;28;20324;-64
2022/12/12 02:28:10;;;;;;;;;;;18.60;36.90;;;;;;5064975;28;20012;-63
2022/12/12 02:30:38;;;;;;;;;;;18.60;37.00;;;;;;5063899;28;19928;-64
2022/12/12 02:33:17;;;;;;;;;;;18.60;36.90;;;;;;5066856;28;19924;-64
2022/12/12 02:35:47;;;;;;;;;;;18.60;36.90;;;;;;5065359;28;20009;-64
2022/12/12 02:38:16;;;;;;;;;;;18.60;36.90;;;;;;5068628;28;20266;-65
2022/12/12 02:40:45;;;;;;;;;;;18.60;36.90;;;;;;5091547;27;20046;-64
2022/12/12 02:43:12;;;;;;;;;;;18.60;36.90;;;;;;5065717;28;20464;-64
2022/12/12 02:45:40;;;;;;;;;;;18.60;36.90;;;;;;5064809;28;19921;-64
2022/12/12 02:48:07;;;;;;;;;;;18.60;36.90;;;;;;5063488;28;19964;-64
2022/12/12 02:50:35;;;;;;;;;;;18.60;36.90;;;;;;5066187;28;19928;-64
2022/12/12 02:53:02;;;;;;;;;;;18.60;36.90;;;;;;5065074;28;19931;-64
2022/12/12 02:55:29;;;;;;;;;;;18.60;36.90;;;;;;5066095;28;19921;-63
2022/12/12 02:57:56;;;;;;;;;;;18.60;36.90;;;;;;5067646;28;19967;-64
2022/12/12 03:00:23;;;;;;;;;;;18.60;36.80;;;;;;5064082;28;19920;-65
2022/12/12 03:07:45;;;;;;;;;;;18.60;36.80;;;;;;5068502;28;19920;-66
2022/12/12 03:08:33;;;;;;;;;;;18.60;36.80;;;;;;5087403;28;19921;-65
2022/12/12 03:11:01;;;;;;;;;;;18.60;36.80;;;;;;5066988;28;19933;-64
2022/12/12 03:13:30;;;;;;;;;;;18.60;36.80;;;;;;5066185;28;19921;-64
2022/12/12 03:15:58;;;;;;;;;;;18.50;36.70;;;;;;5068442;28;19932;-67
2022/12/12 03:18:26;;;;;;;;;;;18.50;36.70;;;;;;5060611;28;19927;-65
2022/12/12 03:20:55;;;;;;;;;;;18.50;36.70;;;;;;5066678;28;19990;-63
2022/12/12 03:23:23;;;;;;;;;;;18.60;36.70;;;;;;5062646;28;20369;-64
2022/12/12 03:25:51;;;;;;;;;;;18.50;36.70;;;;;;5066533;28;19920;-64
2022/12/12 03:28:18;;;;;;;;;;;18.50;36.60;;;;;;5064235;28;19974;-65
2022/12/12 03:30:49;;;;;;;;;;;18.60;36.70;;;;;;5062266;28;19928;-64
2022/12/12 03:33:16;;;;;;;;;;;18.60;36.70;;;;;;5065744;28;19973;-65
2022/12/12 03:35:44;;;;;;;;;;;18.50;36.60;;;;;;5065712;28;20346;-65
2022/12/12 03:38:13;;;;;;;;;;;18.50;36.60;;;;;;5065518;28;20028;-64
2022/12/12 03:40:40;;;;;;;;;;;18.50;36.60;;;;;;5095146;27;19932;-63
2022/12/12 03:43:08;;;;;;;;;;;18.50;36.60;;;;;;5072457;28;20307;-64
2022/12/12 03:45:36;;;;;;;;;;;18.60;36.70;;;;;;5070030;28;19920;-66
2022/12/12 03:48:04;;;;;;;;;;;18.50;36.60;;;;;;5071262;28;19928;-64
2022/12/12 03:50:31;;;;;;;;;;;18.50;36.60;;;;;;5072166;28;19920;-63
2022/12/12 03:52:59;;;;;;;;;;;18.50;36.60;;;;;;5091957;28;19920;-62
2022/12/12 03:55:29;;;;;;;;;;;18.50;36.60;;;;;;5064875;28;19931;-64
2022/12/12 03:57:57;;;;;;;;;;;18.50;36.50;;;;;;5067696;28;19965;-65
2022/12/12 04:00:24;;;;;;;;;;;18.50;36.50;;;;;;5069113;28;19921;-64
2022/12/12 04:02:51;;;;;;;;;;;18.50;36.50;;;;;;5070992;28;20266;-64
2022/12/12 04:05:18;;;;;;;;;;;18.50;36.50;;;;;;5070064;28;19970;-64
2022/12/12 04:07:46;;;;;;;;;;;18.50;36.50;;;;;;5068103;28;19920;-64
2022/12/12 04:13:03;;;;;;;;;;;18.50;36.50;;;;;;5070582;28;20014;-64
2022/12/12 04:15:48;;;;;;;;;;;18.50;36.50;;;;;;5096617;27;20057;-64
2022/12/12 04:18:16;;;;;;;;;;;18.50;36.50;;;;;;5068920;28;19928;-64
2022/12/12 04:23:29;;;;;;;;;;;18.50;36.50;;;;;;5093614;28;20057;-64
2022/12/12 04:28:43;;;;;;;;;;;18.50;36.40;;;;;;5068715;28;19925;-65
2022/12/12 04:31:10;;;;;;;;;;;18.50;36.40;;;;;;5067458;28;19921;-65
2022/12/12 04:33:38;;;;;;;;;;;18.50;36.40;;;;;;5070186;28;19926;-65
2022/12/12 04:36:05;;;;;;;;;;;18.50;36.40;;;;;;5073713;28;19920;-63
2022/12/12 04:38:32;;;;;;;;;;;18.50;36.40;;;;;;5066105;28;19920;-65
2022/12/12 04:40:59;;;;;;;;;;;18.50;36.40;;;;;;5094968;28;19944;-65
2022/12/12 04:43:26;;;;;;;;;;;18.50;36.40;;;;;;5069438;28;19932;-64
2022/12/12 04:45:54;;;;;;;;;;;18.50;36.40;;;;;;5095253;27;19921;-64
2022/12/12 04:48:22;;;;;;;;;;;18.50;36.40;;;;;;5066065;28;19938;-64
2022/12/12 04:50:49;;;;;;;;;;;18.50;36.40;;;;;;5070730;28;19920;-65
2022/12/12 04:53:17;;;;;;;;;;;18.50;36.40;;;;;;5066961;28;19946;-67
2022/12/12 04:55:44;;;;;;;;;;;18.50;36.40;;;;;;5068437;28;19921;-64
2022/12/12 04:58:11;;;;;;;;;;;18.50;36.30;;;;;;5063601;28;19921;-64
2022/12/12 05:00:44;;;;;;;;;;;18.50;36.30;;;;;;5070433;28;19920;-65
2022/12/12 05:03:13;;;;;;;;;;;18.50;36.30;;;;;;5068596;28;19925;-62
2022/12/12 05:05:40;;;;;;;;;;;18.50;36.30;;;;;;5070344;28;19932;-64
2022/12/12 05:08:08;;;;;;;;;;;18.50;36.30;;;;;;5069651;28;19973;-63
2022/12/12 05:10:35;;;;;;;;;;;18.50;36.30;;;;;;5070114;28;19986;-63
2022/12/12 05:13:01;;;;;;;;;;;18.50;36.30;;;;;;5069040;28;19940;-64
2022/12/12 05:15:28;;;;;;;;;;;18.50;36.30;;;;;;5070441;28;19990;-63
2022/12/12 05:17:56;;;;;;;;;;;18.50;36.30;;;;;;5068801;28;20619;-65
2022/12/12 05:20:24;;;;;;;;;;;18.50;36.30;;;;;;5096218;27;19960;-64
2022/12/12 05:22:51;;;;;;;;;;;18.50;36.30;;;;;;5067584;28;19921;-63
2022/12/12 05:25:18;;;;;;;;;;;18.50;36.20;;;;;;5067779;28;19928;-63
2022/12/12 05:27:44;;;;;;;;;;;18.50;36.20;;;;;;5060886;28;19932;-64
2022/12/12 05:30:12;;;;;;;;;;;18.50;36.20;;;;;;5063579;28;19943;-65
2022/12/12 05:32:39;;;;;;;;;;;18.50;36.20;;;;;;5065841;28;19928;-64
2022/12/12 05:35:06;;;;;;;;;;;18.50;36.20;;;;;;5066785;28;20414;-64
2022/12/12 05:37:34;;;;;;;;;;;18.50;36.20;;;;;;5066595;28;19925;-64
2022/12/12 05:40:01;;;;;;;;;;;18.50;36.20;;;;;;5068396;28;19920;-64
2022/12/12 05:42:28;;;;;;;;;;;18.50;36.20;;;;;;5065400;28;19928;-64
2022/12/12 05:44:54;;;;;;;;;;;18.50;36.20;;;;;;5067627;28;19978;-64
2022/12/12 05:47:21;;;;;;;;;;;18.50;36.20;;;;;;5062445;28;19921;-64
2022/12/12 05:49:48;;;;;;;;;;;18.50;36.20;;;;;;5067964;28;19959;-64
2022/12/12 05:52:15;;;;;;;;;;;18.50;36.10;;;;;;5066431;28;19997;-64
2022/12/12 05:54:43;;;;;;;;;;;18.50;36.10;;;;;;5068866;28;19928;-64
2022/12/12 05:57:10;;;;;;;;;;;18.50;36.10;;;;;;5064605;28;19920;-64
2022/12/12 05:59:37;;;;;;;;;;;18.50;36.10;;;;;;5065582;28;19924;-64
2022/12/12 06:02:03;;;;;;;;;;;18.50;36.10;;;;;;5068220;28;19925;-64
2022/12/12 06:04:30;;;;;;;;;;;18.50;36.10;;;;;;5067878;28;19920;-65
2022/12/12 06:06:57;;;;;;;;;;;18.40;36.00;;;;;;5061959;28;19921;-65
2022/12/12 06:09:24;;;;;;;;;;;18.50;36.10;;;;;;5062592;28;19921;-64
2022/12/12 06:11:52;;;;;;;;;;;18.50;36.10;;;;;;5093765;27;19920;-64
2022/12/12 06:14:19;;;;;;;;;;;18.50;36.10;;;;;;5066828;28;19924;-65
2022/12/12 06:16:45;;;;;;;;;;;18.40;36.00;;;;;;5092666;27;19974;-65
2022/12/12 06:19:12;;;;;;;;;;;18.40;36.00;;;;;;5063582;28;19932;-64
2022/12/12 06:21:39;;;;;;;;;;;18.40;35.90;;;;;;5067948;28;20289;-65
2022/12/12 06:24:06;;;;;;;;;;;18.40;35.90;;;;;;5067337;28;20316;-64
2022/12/12 06:26:32;;;;;;;;;;;18.40;35.90;;;;;;5067276;28;20214;-64
2022/12/12 06:29:01;;;;;;;;;;;18.40;35.90;;;;;;5065153;28;19974;-64
2022/12/12 06:31:27;;;;;;;;;;;18.40;35.90;;;;;;5065109;28;19924;-65
2022/12/12 06:33:54;;;;;;;;;;;18.50;36.00;;;;;;5068035;28;19939;-64
2022/12/12 06:36:23;;;;;;;;;;;18.40;35.90;;;;;;5068466;28;19920;-65
2022/12/12 06:38:50;;;;;;;;;;;18.40;35.90;;;;;;5089254;27;19992;-67
2022/12/12 06:41:17;;;;;;;;;;;18.40;35.90;;;;;;5070220;28;20408;-63
2022/12/12 06:43:44;;;;;;;;;;;18.40;35.90;;;;;;5068025;28;19994;-65
2022/12/12 06:46:13;;;;;;;;;;;18.40;35.90;;;;;;5070144;28;19927;-65
2022/12/12 06:48:40;;;;;;;;;;;18.40;35.90;;;;;;5068083;28;19929;-64
2022/12/12 06:51:07;;;;;;;;;;;18.40;35.90;;;;;;5090688;27;20384;-64
2022/12/12 06:53:33;;;;;;;;;;;18.40;35.90;;;;;;5066158;28;19920;-64
2022/12/12 06:56:00;;;;;;;;;;;18.40;35.90;;;;;;5067764;28;19927;-65
2022/12/12 06:58:27;;;;;;;;;;;18.40;35.90;;;;;;5062570;28;19921;-64
2022/12/12 07:00:54;;;;;;;;;;;18.50;36.00;;;;;;5068842;28;20004;-64
2022/12/12 07:03:22;;;;;;;;;;;18.40;35.90;;;;;;5095138;28;19932;-64
2022/12/12 07:05:49;;;;;;;;;;;18.40;36.00;;;;;;5069131;28;19920;-63
2022/12/12 07:08:15;;;;;;;;;;;18.40;35.90;;;;;;5066270;28;19943;-64
2022/12/12 07:10:43;;;;;;;;;;;18.40;36.00;;;;;;5068721;28;19924;-65
2022/12/12 07:13:09;;;;;;;;;;;18.40;36.00;;;;;;5064310;28;19924;-63
2022/12/12 07:15:41;;;;;;;;;;;18.40;35.90;;;;;;5065066;28;19921;-65
2022/12/12 07:18:08;;;;;;;;;;;18.40;36.00;;;;;;5065483;28;19939;-65
2022/12/12 07:20:40;;;;;;;;;;;18.40;36.10;;;;;;5065357;28;20275;-64
2022/12/12 07:23:07;;;;;;;;;;;18.50;36.10;;;;;;5066275;28;19973;-65
2022/12/12 07:25:34;;;;;;;;;;;18.40;36.10;;;;;;5062994;28;20444;-65
2022/12/12 07:28:00;;;;;;;;;;;18.40;36.10;;;;;;5067261;28;19920;-64
2022/12/12 07:30:27;;;;;;;;;;;18.40;36.10;;;;;;5067402;28;19920;-65
2022/12/12 07:32:54;;;;;;;;;;;18.40;36.10;;;;;;5066465;28;19921;-64
2022/12/12 07:35:22;;;;;;;;;;;18.40;36.10;;;;;;5064966;28;19986;-64
2022/12/12 07:37:50;;;;;;;;;;;18.40;36.10;;;;;;5081948;28;19920;-64
2022/12/12 07:40:17;;;;;;;;;;;18.40;36.20;;;;;;5065165;28;19981;-64
2022/12/12 07:42:43;;;;;;;;;;;18.40;36.10;;;;;;5066133;28;19950;-65
2022/12/12 07:45:11;;;;;;;;;;;18.40;36.10;;;;;;5065427;28;19921;-64
2022/12/12 07:47:37;;;;;;;;;;;18.40;36.10;;;;;;5087238;28;20318;-64
2022/12/12 07:50:05;;;;;;;;;;;18.40;36.10;;;;;;5070566;28;19927;-62
2022/12/12 07:52:31;;;;;;;;;;;18.40;36.00;;;;;;5077681;28;19924;-63
2022/12/12 07:55:01;;;;;;;;;;;18.40;36.10;;;;;;5062865;28;19928;-62
2022/12/12 07:57:28;;;;;;;;;;;18.40;36.10;;;;;;5076283;28;19920;-64
2022/12/12 07:59:54;;;;;;;;;;;18.40;36.10;;;;;;5063044;28;19939;-65
2022/12/12 08:02:21;;;;;;;;;;;18.40;36.10;;;;;;5053082;28;19932;-65
2022/12/12 08:04:48;;;;;;;;;;;18.40;36.10;;;;;;5085084;28;20181;-65
2022/12/12 08:07:15;;;;;;;;;;;18.40;36.10;;;;;;5051954;28;19928;-65
2022/12/12 08:09:41;;;;;;;;;;;18.50;36.20;;;;;;5060276;28;19979;-66
2022/12/12 08:12:10;;;;;;;;;;;18.40;36.10;;;;;;5094013;28;20437;-65
2022/12/12 08:14:36;;;;;;;;;;;18.40;36.20;;;;;;5058184;28;19924;-64
2022/12/12 08:17:05;;;;;;;;;;;18.40;36.20;;;;;;5067031;28;21810;-65
2022/12/12 08:19:32;;;;;;;;;;;18.50;36.30;;;;;;5066142;28;19932;-65
2022/12/12 08:21:59;;;;;;;;;;;18.50;36.40;;;;;;5067517;28;19932;-65
2022/12/12 08:24:27;;;;;;;;;;;18.50;36.40;;;;;;5053566;28;19940;-65
2022/12/12 08:26:53;;;;;;;;;;;18.50;36.40;;;;;;5053029;28;19932;-66
2022/12/12 08:29:22;;;;;;;;;;;18.50;36.40;;;;;;5084983;28;19924;-65
2022/12/12 08:31:51;;;;;;;;;;;18.50;36.40;;;;;;5056531;28;19940;-66
2022/12/12 08:34:18;;;;;;;;;;;18.50;36.50;;;;;;5051092;28;20294;-64
2022/12/12 08:36:45;;;;;;;;;;;18.50;36.50;;;;;;5071733;28;19940;-64
2022/12/12 08:39:14;;;;;;;;;;;18.50;36.50;;;;;;5060174;28;19921;-65
2022/12/12 08:41:42;;;;;;;;;;;18.50;36.60;;;;;;5087078;28;19933;-63
2022/12/12 08:44:10;;;;;;;;;;;18.50;36.50;;;;;;5090893;27;19920;-64
2022/12/12 08:46:39;;;;;;;;;;;18.50;36.60;;;;;;5065103;28;20436;-64
2022/12/12 08:49:07;;;;;;;;;;;18.50;36.50;;;;;;5063026;28;19921;-65
2022/12/12 08:51:34;;;;;;;;;;;18.60;36.70;;;;;;5066804;28;19927;-66
2022/12/12 08:54:01;;;;;;;;;;;18.60;36.70;;;;;;5067466;28;19920;-64
2022/12/12 08:56:28;;;;;;;;;;;18.60;36.70;;;;;;5084080;28;20417;-64
2022/12/12 08:59:00;;;;;;;;;;;18.60;36.70;;;;;;5063466;28;19951;-64
2022/12/12 09:01:26;;;;;;;;;;;18.60;36.70;;;;;;5066630;28;20120;-64
2022/12/12 09:03:55;;;;;;;;;;;18.60;36.70;;;;;;5061674;28;19929;-65
2022/12/12 09:06:22;;;;;;;;;;;18.60;36.70;;;;;;5068050;28;19920;-67
2022/12/12 09:08:49;;;;;;;;;;;18.60;36.70;;;;;;5065589;28;19990;-67
2022/12/12 09:11:15;;;;;;;;;;;18.60;36.80;;;;;;5065193;28;19928;-61
2022/12/12 09:13:42;;;;;;;;;;;18.60;36.80;;;;;;5066267;28;19925;-61
2022/12/12 09:16:09;;;;;;;;;;;18.60;36.30;;;;;;5063573;28;19983;-61
2022/12/12 09:18:36;;;;;;;;;;;18.60;35.80;;;;;;5065235;28;19962;-62
2022/12/12 09:21:04;;;;;;;;;;;18.60;35.40;;;;;;5070161;28;19921;-61
2022/12/12 09:23:31;;;;;;;;;;;18.60;34.90;;;;;;5095831;28;20173;-68
2022/12/12 09:25:57;;;;;;;;;;;18.60;34.60;;;;;;5074518;28;19936;-67
2022/12/12 09:28:24;;;;;;;;;;;18.50;34.70;;;;;;5060568;28;19932;-64
2022/12/12 09:30:51;;;;;;;;;;;18.50;34.90;;;;;;5070201;28;19981;-65
2022/12/12 09:33:18;;;;;;;;;;;18.50;35.10;;;;;;5064228;28;19978;-64
2022/12/12 09:35:45;;;;;;;;;;;18.50;35.30;;;;;;5064731;28;19927;-65
2022/12/12 09:38:13;;;;;;;;;;;18.50;35.50;;;;;;5065978;28;19920;-66
2022/12/12 09:40:42;;;;;;;;;;;18.50;35.70;;;;;;5066506;28;19959;-62
2022/12/12 09:43:12;;;;;;;;;;;18.50;35.80;;;;;;5059988;28;19997;-65
2022/12/12 09:45:39;;;;;;;;;;;18.60;36.00;;;;;;5064590;28;19966;-63
2022/12/12 09:48:06;;;;;;;;;;;18.60;36.10;;;;;;5062429;28;20028;-64
2022/12/12 09:50:34;;;;;;;;;;;18.60;36.10;;;;;;5090045;28;19920;-64
2022/12/12 09:53:01;;;;;;;;;;;18.60;36.20;;;;;;5062065;28;20367;-63
2022/12/12 09:55:46;;;;;;;;;;;18.60;36.20;;;;;;5068107;28;19939;-64
2022/12/12 09:58:16;;;;;;;;;;;18.60;36.30;;;;;;5060921;28;19928;-65
2022/12/12 10:00:44;;;;;;;;;;;18.60;36.30;;;;;;5064231;28;19925;-64
2022/12/12 10:03:17;;;;;;;;;;;18.60;36.40;;;;;;5054980;28;20282;-65
2022/12/12 10:05:44;;;;;;;;;;;18.60;36.40;;;;;;5079793;28;20362;-66
2022/12/12 10:08:13;;;;;;;;;;;18.60;36.40;;;;;;5066869;28;19920;-64
2022/12/12 10:10:42;;;;;;;;;;;18.60;36.50;;;;;;5064449;28;19924;-63
2022/12/12 10:13:13;;;;;;;;;;;18.70;36.60;;;;;;5062851;28;19932;-63
2022/12/12 10:15:40;;;;;;;;;;;18.70;36.60;;;;;;5059287;28;20329;-65
2022/12/12 10:18:08;;;;;;;;;;;18.70;36.60;;;;;;5066459;28;20279;-65
2022/12/12 10:20:36;;;;;;;;;;;18.70;36.70;;;;;;5062670;28;20370;-63
2022/12/12 10:23:04;;;;;;;;;;;18.70;36.70;;;;;;5063153;28;20023;-64
2022/12/12 10:25:33;;;;;;;;;;;18.70;36.70;;;;;;5064603;28;19920;-65
2022/12/12 10:28:04;;;;;;;;;;;18.70;36.70;;;;;;5064162;28;19928;-65
2022/12/12 10:30:31;;;;;;;;;;;18.70;36.80;;;;;;5061636;28;19925;-66
2022/12/12 10:33:02;;;;;;;;;;;18.70;36.80;;;;;;5065337;28;19963;-65
2022/12/12 10:35:29;;;;;;;;;;;18.70;36.80;;;;;;5061628;28;21018;-65
2022/12/12 10:38:00;;;;;;;;;;;18.80;36.90;;;;;;5062787;28;19925;-64
2022/12/12 10:40:31;;;;;;;;;;;18.80;36.90;;;;;;5060718;28;19920;-65
2022/12/12 10:42:59;;;;;;;;;;;18.80;37.00;;;;;;5057439;28;19920;-65
2022/12/12 10:45:44;;;;;;;;;;;18.80;37.00;;;;;;5062025;28;21165;-64
2022/12/12 10:48:12;;;;;;;;;;;18.80;37.00;;;;;;5083140;28;19948;-65
2022/12/12 10:50:40;;;;;;;;;;;18.80;37.00;;;;;;5060683;28;19920;-66
2022/12/12 10:53:07;;;;;;;;;;;18.80;37.00;;;;;;5090965;28;19967;-66
2022/12/12 10:55:35;;;;;;;;;;;18.80;37.00;;;;;;5061622;28;19920;-66
2022/12/12 10:58:03;;;;;;;;;;;18.80;37.00;;;;;;5091749;28;19932;-63
2022/12/12 11:00:30;;;;;;;;;;;18.80;37.10;;;;;;5064113;28;19948;-65
2022/12/12 11:02:57;;;;;;;;;;;18.80;37.10;;;;;;5064425;28;19926;-66
2022/12/12 11:05:26;;;;;;;;;;;18.80;37.10;;;;;;5104620;28;19984;-65
2022/12/12 11:07:59;;;;;;;;;;;18.80;37.10;;;;;;5086090;28;20408;-64
2022/12/12 11:10:27;;;;;;;;;;;18.80;37.10;;;;;;5085684;28;20285;-66
2022/12/12 11:12:57;;;;;;;;;;;18.80;37.20;;;;;;5082804;28;19919;-68
2022/12/12 11:15:27;;;;;;;;;;;18.80;37.20;;;;;;5080881;28;19943;-66
2022/12/12 11:17:55;;;;;;;;;;;18.90;37.30;;;;;;5101749;28;19926;-67
2022/12/12 11:20:22;;;;;;;;;;;18.90;37.30;;;;;;5102132;28;19924;-64
2022/12/12 11:22:51;;;;;;;;;;;18.90;37.30;;;;;;5083998;28;19924;-62
2022/12/12 11:25:25;;;;;;;;;;;18.90;37.30;;;;;;5082446;28;19924;-65
2022/12/12 11:27:51;;;;;;;;;;;18.90;37.30;;;;;;5085617;28;19931;-64
2022/12/12 11:30:22;;;;;;;;;;;18.90;37.40;;;;;;5087699;28;20352;-68
2022/12/12 11:32:49;;;;;;;;;;;18.90;37.40;;;;;;5085459;28;19927;-65
2022/12/12 11:35:21;;;;;;;;;;;18.90;37.40;;;;;;5143129;27;19977;-66
2022/12/12 11:37:48;;;;;;;;;;;18.90;37.40;;;;;;5103429;28;19959;-66
2022/12/12 11:40:21;;;;;;;;;;;18.90;37.40;;;;;;5141543;27;19924;-68
2022/12/12 11:42:48;;;;;;;;;;;18.90;37.50;;;;;;5107513;28;19920;-65
2022/12/12 11:45:20;;;;;;;;;;;18.90;37.50;;;;;;5100959;28;19935;-64
2022/12/12 11:47:47;;;;;;;;;;;18.90;37.50;;;;;;5103824;28;19995;-64
2022/12/12 11:50:21;;;;;;;;;;;18.90;37.50;;;;;;5101202;28;19961;-67
2022/12/12 11:52:48;;;;;;;;;;;18.90;37.50;;;;;;5099263;28;19927;-66
2022/12/12 11:55:15;;;;;;;;;;;18.90;37.50;;;;;;5127797;27;19923;-66
2022/12/12 11:57:47;;;;;;;;;;;19.00;37.60;;;;;;5098048;28;19920;-65
2022/12/12 12:00:15;;;;;;;;;;;19.00;37.60;;;;;;5137980;27;19989;-65
2022/12/12 12:02:59;;;;;;;;;;;19.00;37.70;;;;;;5112445;28;20357;-65
2022/12/12 12:05:28;;;;;;;;;;;19.00;37.70;;;;;;5102396;28;19920;-65
2022/12/12 12:08:03;;;;;;;;;;;19.00;37.70;;;;;;5120596;27;19920;-65
2022/12/12 12:10:36;;;;;;;;;;;19.00;37.80;;;;;;5139506;27;19926;-64
2022/12/12 12:13:07;;;;;;;;;;;19.00;37.80;;;;;;5093977;27;19923;-66
2022/12/12 12:15:35;;;;;;;;;;;19.00;37.80;;;;;;5094063;28;19989;-65
2022/12/12 12:18:12;;;;;;;;;;;19.00;37.70;;;;;;5109426;27;19983;-66
2022/12/12 12:20:43;;;;;;;;;;;19.00;37.80;;;;;;5136506;27;19920;-66
2022/12/12 12:23:18;;;;;;;;;;;19.00;37.80;;;;;;5104216;28;20013;-66
2022/12/12 12:25:47;;;;;;;;;;;19.00;37.80;;;;;;5102021;27;19920;-65
2022/12/12 12:28:26;;;;;;;;;;;19.00;37.90;;;;;;5096156;28;19931;-65
2022/12/12 12:30:54;;;;;;;;;;;19.00;37.90;;;;;;5092806;27;19984;-66
2022/12/12 12:33:27;;;;;;;;;;;19.00;38.00;;;;;;5106085;28;20233;-64
2022/12/12 12:35:58;;;;;;;;;;;19.00;38.00;;;;;;5103525;27;19966;-64
2022/12/12 12:38:26;;;;;;;;;;;19.00;38.00;;;;;;5096698;28;19920;-64
2022/12/12 12:40:56;;;;;;;;;;;19.10;38.10;;;;;;5126751;27;19927;-66
2022/12/12 12:43:35;;;;;;;;;;;19.00;38.00;;;;;;5095484;28;19920;-66
2022/12/12 12:46:04;;;;;;;;;;;19.10;38.10;;;;;;5103524;28;19924;-64
2022/12/12 12:48:31;;;;;;;;;;;19.10;38.20;;;;;;5095607;27;19970;-65
2022/12/12 12:51:01;;;;;;;;;;;19.10;38.10;;;;;;5105984;27;19920;-64
2022/12/12 12:53:29;;;;;;;;;;;19.10;38.20;;;;;;5103175;28;19979;-64
2022/12/12 12:55:58;;;;;;;;;;;19.10;38.20;;;;;;5101143;28;19920;-64
2022/12/12 12:58:25;;;;;;;;;;;19.10;38.20;;;;;;5093241;28;20419;-65
2022/12/12 13:00:55;;;;;;;;;;;19.10;38.20;;;;;;5090984;28;19927;-64
2022/12/12 13:03:23;;;;;;;;;;;19.10;38.20;;;;;;5097356;28;19923;-66
2022/12/12 13:05:51;;;;;;;;;;;19.10;38.30;;;;;;5100220;27;19970;-65
2022/12/12 13:08:19;;;;;;;;;;;19.10;38.30;;;;;;5095166;27;19924;-65
2022/12/12 13:10:46;;;;;;;;;;;19.10;38.30;;;;;;5126864;27;19924;-65
2022/12/12 13:13:15;;;;;;;;;;;19.10;38.30;;;;;;5100035;28;19920;-64
2022/12/12 13:15:42;;;;;;;;;;;19.10;38.30;;;;;;5107951;27;19924;-65
2022/12/12 13:18:12;;;;;;;;;;;19.10;38.40;;;;;;5133763;27;19924;-65
2022/12/12 13:20:39;;;;;;;;;;;19.10;38.40;;;;;;5108882;28;19923;-66
2022/12/12 13:23:14;;;;;;;;;;;19.10;38.40;;;;;;5102166;28;20019;-66
2022/12/12 13:25:42;;;;;;;;;;;19.10;38.40;;;;;;5130872;27;19963;-64
2022/12/12 13:28:12;;;;;;;;;;;19.10;38.40;;;;;;5098165;28;19981;-64
2022/12/12 13:30:42;;;;;;;;;;;19.10;38.40;;;;;;5093877;28;19930;-66
2022/12/12 13:33:12;;;;;;;;;;;19.10;38.40;;;;;;5118438;27;19949;-63
2022/12/12 13:35:41;;;;;;;;;;;19.10;38.50;;;;;;5093330;28;19953;-64
2022/12/12 13:38:14;;;;;;;;;;;19.10;38.40;;;;;;5124776;27;20358;-64
2022/12/12 13:40:41;;;;;;;;;;;19.10;38.50;;;;;;5099076;27;19928;-62
2022/12/12 13:43:14;;;;;;;;;;;19.10;38.50;;;;;;5095893;28;19927;-64
2022/12/12 13:45:42;;;;;;;;;;;19.10;38.50;;;;;;5106979;27;19973;-65
2022/12/12 13:48:10;;;;;;;;;;;19.10;38.50;;;;;;5083376;28;19920;-65
2022/12/12 13:50:38;;;;;;;;;;;19.10;38.60;;;;;;5079050;28;20399;-65
2022/12/12 13:53:16;;;;;;;;;;;19.10;38.50;;;;;;5086115;28;19919;-66
2022/12/12 13:55:43;;;;;;;;;;;19.10;38.50;;;;;;5076648;28;20035;-65
2022/12/12 13:58:17;;;;;;;;;;;19.10;38.50;;;;;;5097280;28;19927;-66
2022/12/12 14:00:44;;;;;;;;;;;19.10;38.60;;;;;;5074435;28;19924;-65
2022/12/12 14:03:31;;;;;;;;;;;19.10;38.60;;;;;;5078922;28;20014;-67
2022/12/12 14:06:17;;;;;;;;;;;19.10;38.50;;;;;;5077845;28;20042;-65
2022/12/12 14:08:47;;;;;;;;;;;19.10;38.60;;;;;;5089447;28;19920;-65
2022/12/12 14:11:19;;;;;;;;;;;19.10;38.60;;;;;;5072983;28;20090;-65
2022/12/12 14:13:49;;;;;;;;;;;19.10;38.60;;;;;;5078879;28;20000;-65
2022/12/12 14:16:25;;;;;;;;;;;19.10;38.60;;;;;;5106208;28;19919;-64
2022/12/12 14:19:00;;;;;;;;;;;19.10;38.60;;;;;;5082506;28;19924;-64
2022/12/12 14:21:38;;;;;;;;;;;19.10;38.70;;;;;;5110992;27;19927;-64
2022/12/12 14:24:20;;;;;;;;;;;19.20;38.70;;;;;;5085757;28;19932;-66
2022/12/12 14:26:47;;;;;;;;;;;19.20;38.70;;;;;;5085195;28;19932;-64
2022/12/12 14:29:25;;;;;;;;;;;19.20;38.70;;;;;;5084826;28;19926;-65
2022/12/12 14:31:53;;;;;;;;;;;19.20;38.70;;;;;;5084506;28;20272;-65
2022/12/12 14:34:22;;;;;;;;;;;19.20;38.70;;;;;;5087394;28;19919;-66
2022/12/12 14:37:12;;;;;;;;;;;19.20;38.70;;;;;;5086500;28;19926;-67